Time;durP1;ratioP1;P1;durP2;ratioP2;P2;SDS_P1;SDS_P2;PMS_P1;PMS_P2;Temp;Humidity;BMP_temperature;BMP_pressure;BME280_temperature;BME280_humidity;BME280_pressure;Samples;Min_cycle;Max_cycle;Signal;HPM_P1;HPM_P2
2023/12/17 00:01:55;;;;;;;67.88;35.28;;;11.10;99.90;;;;;;4996057;28;20026;-69
2023/12/17 00:04:21;;;;;;;74.90;36.05;;;11.10;99.90;;;;;;4999458;28;20505;-75
2023/12/17 00:06:47;;;;;;;76.35;37.35;;;11.10;99.90;;;;;;4997255;28;20071;-69
2023/12/17 00:09:13;;;;;;;89.07;38.33;;;11.10;99.90;;;;;;4996450;28;20026;-69
2023/12/17 00:11:41;;;;;;;72.28;35.42;;;11.10;99.90;;;;;;4998698;28;20573;-70
2023/12/17 00:14:12;;;;;;;73.40;37.20;;;11.10;99.90;;;;;;4996259;28;20034;-75
2023/12/17 00:16:37;;;;;;;75.40;36.63;;;11.10;99.90;;;;;;4997252;28;20359;-72
2023/12/17 00:19:03;;;;;;;71.97;32.40;;;11.00;99.90;;;;;;4996283;28;20046;-69
2023/12/17 00:21:29;;;;;;;71.70;33.95;;;11.00;99.90;;;;;;4996251;28;20026;-70
2023/12/17 00:23:54;;;;;;;66.57;33.72;;;11.00;99.90;;;;;;4997000;28;20034;-69
2023/12/17 00:26:20;;;;;;;78.45;34.35;;;11.00;99.90;;;;;;4997065;28;20370;-69
2023/12/17 00:28:46;;;;;;;74.45;34.13;;;11.00;99.90;;;;;;4995565;28;20479;-69
2023/12/17 00:31:12;;;;;;;74.50;34.45;;;11.00;99.90;;;;;;4985050;28;20026;-70
2023/12/17 00:33:37;;;;;;;74.25;33.67;;;11.00;99.90;;;;;;4985416;28;20103;-69
2023/12/17 00:36:03;;;;;;;68.05;34.13;;;11.00;99.90;;;;;;4996540;28;20352;-69
2023/12/17 00:38:29;;;;;;;74.20;36.25;;;11.00;99.90;;;;;;4996874;28;21364;-72
2023/12/17 00:40:54;;;;;;;67.82;34.45;;;11.00;99.90;;;;;;4998516;28;20076;-69
2023/12/17 00:43:20;;;;;;;80.10;35.88;;;11.10;99.90;;;;;;4997043;28;20034;-70
2023/12/17 00:45:46;;;;;;;70.65;35.13;;;11.00;99.90;;;;;;5000925;28;20036;-69
2023/12/17 00:48:11;;;;;;;74.75;35.92;;;11.00;99.90;;;;;;4993790;28;20050;-69
2023/12/17 00:50:37;;;;;;;76.72;34.10;;;11.00;99.90;;;;;;4995271;28;20054;-71
2023/12/17 00:53:03;;;;;;;71.38;35.58;;;11.00;99.90;;;;;;4993821;28;20577;-69
2023/12/17 00:55:28;;;;;;;72.47;34.10;;;11.00;99.90;;;;;;4999097;28;22307;-70
2023/12/17 00:57:54;;;;;;;80.68;36.92;;;11.00;99.90;;;;;;4995878;28;20080;-69
2023/12/17 01:00:20;;;;;;;70.32;35.88;;;11.00;99.90;;;;;;4995287;28;20474;-73
2023/12/17 01:02:45;;;;;;;73.85;33.25;;;11.00;99.90;;;;;;4986280;28;20487;-72
2023/12/17 01:05:12;;;;;;;69.15;33.75;;;11.00;99.90;;;;;;4995683;28;20029;-69
2023/12/17 01:07:37;;;;;;;72.82;36.78;;;11.00;99.90;;;;;;4996373;28;20036;-69
2023/12/17 01:10:04;;;;;;;85.00;39.65;;;11.00;99.90;;;;;;4996302;28;20030;-71
2023/12/17 01:12:29;;;;;;;79.30;36.05;;;11.00;99.90;;;;;;4996486;28;20022;-72
2023/12/17 01:14:55;;;;;;;64.80;31.92;;;11.10;99.90;;;;;;4997900;28;20113;-69
2023/12/17 01:17:21;;;;;;;64.70;32.10;;;11.10;99.90;;;;;;4994931;28;20108;-69
2023/12/17 01:19:46;;;;;;;87.65;37.78;;;11.10;99.90;;;;;;4995445;28;20076;-71
2023/12/17 01:22:12;;;;;;;62.70;31.27;;;11.10;99.90;;;;;;4995050;28;20382;-74
2023/12/17 01:24:39;;;;;;;69.60;32.97;;;11.00;99.90;;;;;;4995409;28;20513;-75
2023/12/17 01:27:05;;;;;;;85.28;36.88;;;11.10;99.90;;;;;;4999763;28;20088;-70
2023/12/17 01:29:31;;;;;;;72.95;35.13;;;11.10;99.90;;;;;;4995546;28;20104;-68
2023/12/17 01:31:57;;;;;;;73.10;33.95;;;11.10;99.90;;;;;;4997603;28;20037;-69
2023/12/17 01:34:24;;;;;;;75.35;34.10;;;11.10;99.90;;;;;;4998088;28;20022;-69
2023/12/17 01:36:49;;;;;;;81.70;36.75;;;11.10;99.90;;;;;;4998914;28;20065;-69
2023/12/17 01:39:16;;;;;;;70.10;33.67;;;11.10;99.90;;;;;;4995807;28;20077;-69
2023/12/17 01:41:42;;;;;;;59.20;30.90;;;11.10;99.90;;;;;;4998206;28;20041;-69
2023/12/17 01:44:08;;;;;;;63.63;31.30;;;11.10;99.90;;;;;;4996895;28;20025;-69
2023/12/17 01:46:34;;;;;;;68.00;32.50;;;11.10;99.90;;;;;;4995769;28;20026;-69
2023/12/17 01:48:59;;;;;;;70.07;33.58;;;11.10;99.90;;;;;;4996336;28;20033;-69
2023/12/17 01:51:27;;;;;;;61.30;29.65;;;11.10;99.90;;;;;;4998073;28;20041;-69
2023/12/17 01:53:53;;;;;;;58.40;28.67;;;11.10;99.90;;;;;;4996244;28;20041;-71
2023/12/17 01:56:19;;;;;;;57.17;29.98;;;11.10;99.90;;;;;;5000716;28;20109;-69
2023/12/17 01:58:45;;;;;;;66.82;29.27;;;11.10;99.90;;;;;;5000218;28;20037;-69
2023/12/17 02:01:11;;;;;;;68.07;30.90;;;11.10;99.90;;;;;;5001253;28;20076;-71
2023/12/17 02:03:37;;;;;;;62.20;30.63;;;11.10;99.90;;;;;;5001110;28;20022;-69
2023/12/17 02:06:06;;;;;;;56.80;30.10;;;11.20;99.90;;;;;;5000529;28;20033;-69
2023/12/17 02:08:32;;;;;;;60.13;32.08;;;11.10;99.90;;;;;;5007438;28;20155;-69
2023/12/17 02:10:58;;;;;;;57.22;29.98;;;11.10;99.90;;;;;;5012884;28;20113;-68
2023/12/17 02:13:23;;;;;;;51.85;27.05;;;11.10;99.90;;;;;;5014406;28;20018;-69
2023/12/17 02:15:49;;;;;;;54.42;27.88;;;11.10;99.90;;;;;;4996269;28;20351;-69
2023/12/17 02:18:15;;;;;;;53.05;28.50;;;11.10;99.90;;;;;;5013559;28;20116;-69
2023/12/17 02:20:43;;;;;;;58.15;30.13;;;11.10;99.90;;;;;;5013443;28;20478;-69
2023/12/17 02:23:10;;;;;;;58.60;28.77;;;11.20;99.90;;;;;;5013127;28;20061;-70
2023/12/17 02:25:36;;;;;;;50.00;27.55;;;11.20;99.90;;;;;;5011838;28;20203;-69
2023/12/17 02:28:02;;;;;;;53.50;28.95;;;11.20;99.90;;;;;;5013622;28;20415;-69
2023/12/17 02:30:27;;;;;;;54.13;27.63;;;11.20;99.90;;;;;;5014345;28;20049;-69
2023/12/17 02:32:53;;;;;;;56.63;28.00;;;11.30;99.90;;;;;;5013619;28;20105;-69
2023/12/17 02:35:21;;;;;;;48.53;27.38;;;11.20;99.90;;;;;;5010528;28;20033;-70
2023/12/17 02:37:50;;;;;;;64.25;28.80;;;11.30;99.90;;;;;;5012508;28;20018;-69
2023/12/17 02:40:16;;;;;;;60.72;29.92;;;11.30;99.90;;;;;;5013158;28;20018;-69
2023/12/17 02:42:42;;;;;;;62.28;31.08;;;11.30;99.90;;;;;;5011104;28;20730;-69
2023/12/17 02:45:09;;;;;;;53.20;28.15;;;11.30;99.90;;;;;;5013229;28;20029;-69
2023/12/17 02:47:35;;;;;;;61.90;28.45;;;11.30;99.90;;;;;;5013464;28;20089;-70
2023/12/17 02:50:01;;;;;;;59.83;30.85;;;11.30;99.90;;;;;;5012230;28;20394;-69
2023/12/17 02:52:26;;;;;;;55.08;27.95;;;11.30;99.90;;;;;;5015129;28;20029;-70
2023/12/17 02:54:52;;;;;;;60.72;29.08;;;11.30;99.90;;;;;;5013624;28;20486;-69
2023/12/17 02:57:18;;;;;;;61.95;29.33;;;11.30;99.90;;;;;;5012349;28;20034;-69
2023/12/17 02:59:44;;;;;;;61.53;30.85;;;11.30;99.90;;;;;;5010971;28;20542;-71
2023/12/17 03:02:09;;;;;;;62.85;29.80;;;11.30;99.90;;;;;;5010064;28;20060;-70
2023/12/17 03:04:35;;;;;;;60.58;31.13;;;11.30;99.90;;;;;;5013928;28;20450;-70
2023/12/17 03:07:01;;;;;;;62.15;29.02;;;11.30;99.90;;;;;;5009052;28;20030;-72
2023/12/17 03:09:26;;;;;;;63.22;30.20;;;11.30;99.90;;;;;;5013402;28;20022;-69
2023/12/17 03:11:52;;;;;;;61.60;30.13;;;11.30;99.90;;;;;;5012498;28;20104;-70
2023/12/17 03:14:18;;;;;;;69.00;31.05;;;11.30;99.90;;;;;;5012981;28;20025;-69
2023/12/17 03:16:43;;;;;;;51.65;28.55;;;11.30;99.90;;;;;;5009894;28;20437;-71
2023/12/17 03:19:10;;;;;;;61.65;28.75;;;11.40;99.90;;;;;;5013808;28;20490;-70
2023/12/17 03:21:35;;;;;;;70.68;31.45;;;11.40;99.90;;;;;;5010764;28;20926;-69
2023/12/17 03:24:01;;;;;;;64.32;29.58;;;11.30;99.90;;;;;;5012857;28;20022;-69
2023/12/17 03:26:27;;;;;;;65.63;28.25;;;11.30;99.90;;;;;;5011263;28;20022;-69
2023/12/17 03:28:53;;;;;;;56.20;27.15;;;11.30;99.90;;;;;;5013380;28;20026;-69
2023/12/17 03:31:19;;;;;;;59.17;28.42;;;11.20;99.90;;;;;;5012814;28;20083;-69
2023/12/17 03:33:45;;;;;;;63.67;28.45;;;11.30;99.90;;;;;;4992947;28;20042;-69
2023/12/17 03:36:17;;;;;;;55.88;26.98;;;11.30;99.90;;;;;;5011571;28;20498;-70
2023/12/17 03:38:44;;;;;;;54.60;25.42;;;11.30;99.90;;;;;;5009125;28;20030;-69
2023/12/17 03:41:21;;;;;;;44.97;24.00;;;11.20;99.90;;;;;;5009024;28;20036;-69
2023/12/17 03:43:49;;;;;;;48.67;21.98;;;11.20;99.90;;;;;;5010481;28;20018;-70
2023/12/17 03:46:15;;;;;;;41.78;21.98;;;11.20;99.90;;;;;;5010184;28;20033;-69
2023/12/17 03:48:41;;;;;;;35.10;20.52;;;11.20;99.90;;;;;;5012768;28;20033;-69
2023/12/17 03:51:06;;;;;;;39.22;20.70;;;11.20;99.90;;;;;;5013512;28;20033;-69
2023/12/17 03:53:32;;;;;;;39.20;18.98;;;11.20;99.90;;;;;;5012720;28;20120;-69
2023/12/17 03:55:57;;;;;;;33.65;20.02;;;11.20;99.90;;;;;;5010595;28;20497;-69
2023/12/17 03:58:23;;;;;;;40.92;21.35;;;11.30;99.90;;;;;;5011649;28;20502;-69
2023/12/17 04:00:49;;;;;;;37.70;20.15;;;11.30;99.90;;;;;;5010511;28;20749;-69
2023/12/17 04:03:14;;;;;;;40.13;18.60;;;11.30;99.90;;;;;;5012339;28;20459;-70
2023/12/17 04:05:40;;;;;;;34.40;18.70;;;11.30;99.90;;;;;;5012372;28;20542;-69
2023/12/17 04:08:07;;;;;;;33.47;18.27;;;11.20;99.90;;;;;;5012030;28;20026;-69
2023/12/17 04:10:33;;;;;;;29.65;16.20;;;11.20;99.90;;;;;;5009051;28;20028;-69
2023/12/17 04:12:59;;;;;;;31.08;16.45;;;11.30;99.90;;;;;;5012076;28;20034;-69
2023/12/17 04:15:25;;;;;;;34.40;17.30;;;11.30;99.90;;;;;;5011786;28;20033;-69
2023/12/17 04:17:50;;;;;;;29.15;16.85;;;11.30;99.90;;;;;;5009761;28;20041;-69
2023/12/17 04:20:16;;;;;;;34.58;17.60;;;11.10;99.90;;;;;;5012861;28;20114;-69
2023/12/17 04:22:41;;;;;;;34.90;17.08;;;11.10;99.90;;;;;;5008506;28;20387;-69
2023/12/17 04:25:10;;;;;;;28.05;16.15;;;11.10;99.90;;;;;;5009939;28;20364;-69
2023/12/17 04:27:36;;;;;;;32.22;16.65;;;11.10;99.90;;;;;;5011748;28;20046;-69
2023/12/17 04:30:01;;;;;;;32.88;16.00;;;11.10;99.90;;;;;;5010341;28;20073;-69
2023/12/17 04:32:27;;;;;;;30.05;16.05;;;11.10;99.90;;;;;;5012928;28;20487;-69
2023/12/17 04:34:55;;;;;;;36.67;17.77;;;11.20;99.90;;;;;;4994540;28;20073;-69
2023/12/17 04:37:22;;;;;;;32.50;18.00;;;11.10;99.90;;;;;;5009176;28;20471;-69
2023/12/17 04:39:48;;;;;;;33.58;16.42;;;11.00;99.90;;;;;;5011400;28;20048;-70
2023/12/17 04:42:15;;;;;;;30.35;16.17;;;11.00;99.90;;;;;;5009163;28;20029;-70
2023/12/17 04:44:40;;;;;;;38.58;16.95;;;11.00;99.90;;;;;;4990132;28;20030;-69
2023/12/17 04:47:06;;;;;;;28.90;15.77;;;11.00;99.90;;;;;;5009936;28;20635;-69
2023/12/17 04:49:32;;;;;;;27.42;15.13;;;11.10;99.90;;;;;;5011525;28;20026;-69
2023/12/17 04:51:57;;;;;;;33.15;15.73;;;11.10;99.90;;;;;;5011569;28;20360;-69
2023/12/17 04:54:24;;;;;;;35.55;17.40;;;11.10;99.90;;;;;;5009073;28;20104;-69
2023/12/17 04:56:50;;;;;;;35.60;16.90;;;11.10;99.90;;;;;;5010188;28;20026;-69
2023/12/17 04:59:15;;;;;;;38.92;16.92;;;11.10;99.90;;;;;;5011318;28;20038;-69
2023/12/17 05:01:41;;;;;;;38.90;17.50;;;11.00;99.90;;;;;;5010936;28;20380;-69
2023/12/17 05:04:07;;;;;;;36.58;16.58;;;11.00;99.90;;;;;;5011551;28;20474;-69
2023/12/17 05:06:33;;;;;;;33.13;16.25;;;10.90;99.90;;;;;;5010916;28;20105;-69
2023/12/17 05:08:58;;;;;;;41.13;17.83;;;11.00;99.90;;;;;;5010523;28;20402;-69
2023/12/17 05:11:24;;;;;;;40.75;17.90;;;10.90;99.90;;;;;;5011167;28;20033;-69
2023/12/17 05:13:50;;;;;;;33.00;16.08;;;10.90;99.90;;;;;;5011113;28;20034;-70
2023/12/17 05:16:16;;;;;;;32.55;17.17;;;10.90;99.90;;;;;;5010812;28;20040;-69
2023/12/17 05:18:41;;;;;;;35.17;17.05;;;10.80;99.90;;;;;;5011140;28;20494;-69
2023/12/17 05:21:08;;;;;;;37.67;16.48;;;10.90;99.90;;;;;;4993278;28;20040;-70
2023/12/17 05:23:34;;;;;;;33.00;15.23;;;10.90;99.90;;;;;;4991682;28;20104;-74
2023/12/17 05:25:59;;;;;;;28.90;14.73;;;10.90;99.90;;;;;;5009892;28;20110;-69
2023/12/17 05:28:25;;;;;;;31.77;14.50;;;10.90;99.90;;;;;;4992579;28;20061;-69
2023/12/17 05:30:52;;;;;;;33.97;15.10;;;10.80;99.90;;;;;;5009157;28;20498;-69
2023/12/17 05:33:17;;;;;;;29.48;14.50;;;10.80;99.90;;;;;;5011084;28;20014;-69
2023/12/17 05:35:43;;;;;;;30.40;13.52;;;10.90;99.90;;;;;;5010295;28;20364;-74
2023/12/17 05:38:09;;;;;;;32.63;15.50;;;10.80;99.90;;;;;;5011698;28;20372;-71
2023/12/17 05:40:34;;;;;;;27.85;14.32;;;10.80;99.90;;;;;;5010733;28;20121;-72
2023/12/17 05:43:01;;;;;;;31.80;16.00;;;10.90;99.90;;;;;;5011849;28;20037;-69
2023/12/17 05:45:27;;;;;;;31.40;15.13;;;10.80;99.90;;;;;;5011537;28;20498;-69
2023/12/17 05:47:53;;;;;;;26.98;13.85;;;10.80;99.90;;;;;;5009652;28;20030;-70
2023/12/17 05:50:18;;;;;;;30.27;15.25;;;10.80;99.90;;;;;;5011022;28;20030;-69
2023/12/17 05:52:44;;;;;;;30.02;15.27;;;10.70;99.90;;;;;;5009772;28;20447;-69
2023/12/17 05:55:10;;;;;;;32.85;16.10;;;10.70;99.90;;;;;;5010608;28;20030;-69
2023/12/17 05:57:35;;;;;;;33.28;16.63;;;10.70;99.90;;;;;;5010817;28;20387;-69
2023/12/17 06:00:01;;;;;;;34.35;16.50;;;10.80;99.90;;;;;;5008241;28;20100;-69
2023/12/17 06:02:27;;;;;;;30.42;15.55;;;10.70;99.90;;;;;;5011659;28;20018;-70
2023/12/17 06:04:53;;;;;;;35.47;16.35;;;10.80;99.90;;;;;;5008091;28;20030;-69
2023/12/17 06:07:18;;;;;;;29.77;16.73;;;10.80;99.90;;;;;;4991310;28;20482;-70
2023/12/17 06:09:44;;;;;;;28.95;15.15;;;10.80;99.90;;;;;;5011315;28;20049;-70
2023/12/17 06:12:10;;;;;;;27.27;15.65;;;10.70;99.90;;;;;;5010598;28;20044;-70
2023/12/17 06:14:35;;;;;;;29.67;15.32;;;10.70;99.90;;;;;;5009311;28;20420;-69
2023/12/17 06:17:01;;;;;;;28.48;16.05;;;10.70;99.90;;;;;;5010261;28;20493;-69
2023/12/17 06:19:26;;;;;;;30.77;15.68;;;10.70;99.90;;;;;;5010273;28;20033;-69
2023/12/17 06:21:52;;;;;;;30.13;16.05;;;10.70;99.90;;;;;;5006321;28;20080;-69
2023/12/17 06:24:18;;;;;;;31.80;16.83;;;10.60;99.90;;;;;;5010397;28;20529;-69
2023/12/17 06:26:43;;;;;;;33.58;16.35;;;10.60;99.90;;;;;;5010740;28;20434;-70
2023/12/17 06:29:13;;;;;;;42.05;17.77;;;10.60;99.90;;;;;;5010290;28;20105;-70
2023/12/17 06:31:40;;;;;;;32.60;16.35;;;10.60;99.90;;;;;;5010719;28;20018;-69
2023/12/17 06:34:06;;;;;;;28.58;15.30;;;10.60;99.90;;;;;;5009132;28;20087;-72
2023/12/17 06:36:32;;;;;;;30.92;16.05;;;10.50;99.90;;;;;;5010084;28;20018;-69
2023/12/17 06:38:58;;;;;;;29.75;15.65;;;10.50;99.90;;;;;;5009903;28;20478;-69
2023/12/17 06:41:23;;;;;;;33.70;16.45;;;10.50;99.90;;;;;;5013254;28;20026;-70
2023/12/17 06:43:49;;;;;;;34.47;16.05;;;10.50;99.90;;;;;;5013606;28;20459;-69
2023/12/17 06:46:16;;;;;;;28.35;14.40;;;10.40;99.90;;;;;;5015158;28;20030;-69
2023/12/17 06:48:42;;;;;;;28.00;14.18;;;10.40;99.90;;;;;;5013917;28;20022;-69
2023/12/17 06:51:08;;;;;;;28.73;14.90;;;10.50;99.90;;;;;;5013217;28;20383;-69
2023/12/17 06:53:33;;;;;;;31.50;15.50;;;10.40;99.90;;;;;;5014262;28;20080;-69
2023/12/17 06:55:59;;;;;;;32.33;16.55;;;10.40;99.90;;;;;;5014356;28;20038;-69
2023/12/17 06:58:25;;;;;;;34.40;16.48;;;10.50;99.90;;;;;;5013811;28;20493;-69
2023/12/17 07:00:51;;;;;;;25.65;14.35;;;10.50;99.90;;;;;;4996962;28;20460;-70
2023/12/17 07:03:20;;;;;;;30.75;15.27;;;10.50;99.90;;;;;;5013259;28;20021;-69
2023/12/17 07:05:45;;;;;;;31.40;15.13;;;10.40;99.90;;;;;;5010737;28;20022;-70
2023/12/17 07:08:11;;;;;;;30.13;14.48;;;10.40;99.90;;;;;;5014825;28;20018;-70
2023/12/17 07:10:37;;;;;;;32.30;15.73;;;10.40;99.90;;;;;;5013663;28;20021;-69
2023/12/17 07:13:03;;;;;;;28.88;14.35;;;10.40;99.90;;;;;;5011232;28;20382;-73
2023/12/17 07:15:29;;;;;;;31.40;14.80;;;10.40;99.90;;;;;;5009875;28;20014;-71
2023/12/17 07:17:55;;;;;;;30.77;15.13;;;10.50;99.90;;;;;;5012479;28;20391;-69
2023/12/17 07:20:21;;;;;;;27.77;13.63;;;10.50;99.90;;;;;;5013218;28;20108;-69
2023/12/17 07:22:48;;;;;;;26.90;14.55;;;10.30;99.90;;;;;;4995137;28;20356;-69
2023/12/17 07:25:14;;;;;;;28.85;13.70;;;10.30;99.90;;;;;;5011512;28;20080;-70
2023/12/17 07:27:39;;;;;;;30.20;13.88;;;10.30;99.90;;;;;;5013997;28;20026;-69
2023/12/17 07:30:05;;;;;;;26.90;13.68;;;10.20;99.90;;;;;;5010857;28;20034;-69
2023/12/17 07:32:31;;;;;;;27.20;14.70;;;10.30;99.90;;;;;;5012123;28;20029;-70
2023/12/17 07:34:57;;;;;;;31.67;15.35;;;10.10;99.90;;;;;;4994807;28;20025;-69
2023/12/17 07:37:23;;;;;;;31.42;14.43;;;10.10;99.90;;;;;;5013974;28;20030;-72
2023/12/17 07:39:48;;;;;;;30.33;14.63;;;10.10;99.90;;;;;;5013630;28;20038;-71
2023/12/17 07:42:14;;;;;;;28.77;14.88;;;10.10;99.90;;;;;;5013066;28;20386;-71
2023/12/17 07:44:40;;;;;;;27.08;15.20;;;10.10;99.90;;;;;;5012650;28;20464;-73
2023/12/17 07:47:05;;;;;;;26.92;14.05;;;10.20;99.90;;;;;;5012664;28;20481;-70
2023/12/17 07:49:31;;;;;;;29.33;14.73;;;10.10;99.90;;;;;;5013801;28;20026;-69
2023/12/17 07:51:57;;;;;;;28.35;14.93;;;10.00;99.90;;;;;;5010566;28;20030;-69
2023/12/17 07:54:23;;;;;;;28.27;14.45;;;10.00;99.90;;;;;;5012986;28;20030;-69
2023/12/17 07:56:49;;;;;;;31.95;14.73;;;10.00;99.90;;;;;;5013623;28;20045;-69
2023/12/17 07:59:15;;;;;;;36.35;16.00;;;9.90;99.90;;;;;;5011520;28;20454;-69
2023/12/17 08:01:40;;;;;;;32.42;15.50;;;9.90;99.90;;;;;;5010465;28;20038;-69
2023/12/17 08:04:08;;;;;;;36.78;16.00;;;9.80;99.90;;;;;;5013361;28;20037;-69
2023/12/17 08:06:33;;;;;;;26.70;14.68;;;9.90;99.90;;;;;;5013569;28;20045;-69
2023/12/17 08:08:59;;;;;;;30.02;14.48;;;9.80;99.90;;;;;;5013137;28;20636;-70
2023/12/17 08:11:25;;;;;;;31.77;16.40;;;9.70;99.90;;;;;;5012608;28;20026;-69
2023/12/17 08:13:51;;;;;;;28.85;15.43;;;9.70;99.90;;;;;;5013221;28;20068;-69
2023/12/17 08:16:17;;;;;;;34.53;17.05;;;9.70;99.90;;;;;;5012857;28;20402;-69
2023/12/17 08:18:43;;;;;;;41.60;19.13;;;9.70;99.90;;;;;;5011668;28;20053;-68
2023/12/17 08:21:09;;;;;;;38.72;19.27;;;9.70;99.90;;;;;;5011299;28;20032;-69
2023/12/17 08:23:35;;;;;;;44.45;21.23;;;9.70;99.90;;;;;;5012073;28;20101;-69
2023/12/17 08:26:01;;;;;;;49.33;21.65;;;9.70;99.90;;;;;;5012762;28;20490;-69
2023/12/17 08:28:26;;;;;;;53.92;25.10;;;9.60;99.90;;;;;;5012001;28;20079;-68
2023/12/17 08:30:52;;;;;;;46.40;22.73;;;9.60;99.90;;;;;;5008736;28;20030;-69
2023/12/17 08:33:18;;;;;;;48.38;23.48;;;9.60;99.90;;;;;;5013491;28;20383;-68
2023/12/17 08:35:45;;;;;;;55.25;24.17;;;9.70;99.90;;;;;;5012391;28;20105;-70
2023/12/17 08:38:11;;;;;;;51.88;23.85;;;9.70;99.90;;;;;;4993454;28;20678;-69
2023/12/17 08:40:38;;;;;;;57.33;25.55;;;9.80;99.90;;;;;;5011539;28;20034;-69
2023/12/17 08:43:04;;;;;;;59.17;25.13;;;9.80;99.90;;;;;;5010605;28;20026;-70
2023/12/17 08:45:30;;;;;;;60.47;27.45;;;9.80;99.90;;;;;;5011130;28;20026;-69
2023/12/17 08:47:56;;;;;;;61.03;27.00;;;9.70;99.90;;;;;;5011541;28;20479;-69
2023/12/17 08:50:22;;;;;;;51.35;25.65;;;9.70;99.90;;;;;;5010758;28;20382;-69
2023/12/17 08:52:47;;;;;;;57.47;25.23;;;9.70;99.90;;;;;;5009722;28;20036;-71
2023/12/17 08:55:13;;;;;;;58.38;25.52;;;9.70;99.90;;;;;;5008966;28;20030;-70
2023/12/17 08:57:39;;;;;;;53.67;25.33;;;9.60;99.90;;;;;;5008466;28;20490;-72
2023/12/17 09:00:05;;;;;;;55.25;24.75;;;9.60;99.90;;;;;;5010474;28;20446;-69
2023/12/17 09:02:32;;;;;;;58.72;25.48;;;9.60;99.90;;;;;;4992694;28;20391;-70
2023/12/17 09:04:57;;;;;;;53.22;25.88;;;9.60;99.90;;;;;;4963290;28;20026;-71
2023/12/17 09:07:24;;;;;;;66.90;29.25;;;9.70;99.90;;;;;;4993938;28;20062;-72
2023/12/17 09:09:49;;;;;;;53.35;24.73;;;9.60;99.90;;;;;;4982515;28;20053;-70
2023/12/17 09:12:16;;;;;;;50.78;24.77;;;9.50;99.90;;;;;;4995576;28;20061;-71
2023/12/17 09:14:42;;;;;;;54.80;25.40;;;9.40;99.90;;;;;;4993205;28;20402;-70
2023/12/17 09:17:08;;;;;;;44.63;22.48;;;9.30;99.90;;;;;;4995728;28;20501;-70
2023/12/17 09:19:34;;;;;;;53.88;23.63;;;9.40;99.90;;;;;;4994746;28;20039;-70
2023/12/17 09:22:01;;;;;;;46.40;23.00;;;9.40;99.90;;;;;;4992929;28;20026;-70
2023/12/17 09:24:27;;;;;;;52.08;23.40;;;9.30;99.90;;;;;;4994642;28;20053;-70
2023/12/17 09:26:53;;;;;;;52.58;23.42;;;9.30;99.90;;;;;;4992002;28;20509;-70
2023/12/17 09:29:20;;;;;;;49.28;24.77;;;9.20;99.90;;;;;;4995808;28;20483;-70
2023/12/17 09:31:46;;;;;;;49.88;24.20;;;9.20;99.90;;;;;;4993670;28;20526;-70
2023/12/17 09:34:14;;;;;;;54.00;26.80;;;9.20;99.90;;;;;;4996388;28;20030;-71
2023/12/17 09:36:41;;;;;;;49.97;24.10;;;9.30;99.90;;;;;;4997466;28;20017;-69
2023/12/17 09:39:07;;;;;;;50.00;23.70;;;9.20;99.90;;;;;;4985276;28;20096;-69
2023/12/17 09:41:33;;;;;;;49.55;24.05;;;9.20;99.90;;;;;;4994898;28;20022;-70
2023/12/17 09:43:59;;;;;;;47.90;22.63;;;9.20;99.90;;;;;;4993289;28;20030;-70
2023/12/17 09:46:25;;;;;;;49.50;24.60;;;9.20;99.90;;;;;;4984183;28;20049;-70
2023/12/17 09:48:51;;;;;;;42.15;21.83;;;9.10;99.90;;;;;;4992668;28;20461;-70
2023/12/17 09:51:18;;;;;;;46.80;22.75;;;9.20;99.90;;;;;;4993662;28;20026;-69
2023/12/17 09:53:44;;;;;;;49.05;22.98;;;9.10;99.90;;;;;;4994514;28;20025;-70
2023/12/17 09:56:13;;;;;;;48.97;24.38;;;9.20;99.90;;;;;;4983772;28;20014;-72
2023/12/17 09:58:39;;;;;;;47.03;23.63;;;9.20;99.90;;;;;;4990681;28;20490;-71
2023/12/17 10:01:05;;;;;;;53.72;25.08;;;9.10;99.90;;;;;;4994628;28;20037;-70
2023/12/17 10:03:33;;;;;;;60.85;25.90;;;9.20;99.90;;;;;;4990979;28;20104;-70
2023/12/17 10:05:59;;;;;;;55.17;24.33;;;9.10;99.90;;;;;;4994755;28;21135;-71
2023/12/17 10:08:25;;;;;;;51.53;24.33;;;9.20;99.90;;;;;;4996061;28;20057;-71
2023/12/17 10:10:51;;;;;;;55.13;23.98;;;9.30;99.90;;;;;;4994870;28;20062;-71
2023/12/17 10:13:22;;;;;;;56.00;24.92;;;9.30;99.90;;;;;;4994418;28;20048;-69
2023/12/17 10:15:52;;;;;;;56.85;25.40;;;9.30;99.90;;;;;;4998302;28;20025;-69
2023/12/17 10:18:18;;;;;;;50.38;24.38;;;9.30;99.90;;;;;;4997906;28;20027;-69
2023/12/17 10:20:45;;;;;;;58.67;24.25;;;9.30;99.90;;;;;;5000409;28;20033;-70
2023/12/17 10:23:11;;;;;;;52.45;25.65;;;9.40;99.90;;;;;;5001197;28;20077;-70
2023/12/17 10:25:37;;;;;;;60.83;26.88;;;9.30;99.90;;;;;;4997485;28;20530;-70
2023/12/17 10:28:02;;;;;;;52.40;24.27;;;9.40;99.90;;;;;;5001001;28;20018;-70
2023/12/17 10:30:30;;;;;;;57.03;26.45;;;9.40;99.90;;;;;;4998203;28;20030;-71
2023/12/17 10:32:58;;;;;;;54.20;24.77;;;9.40;99.90;;;;;;4995897;28;20072;-69
2023/12/17 10:35:25;;;;;;;49.55;24.42;;;9.40;99.90;;;;;;4999266;28;20492;-70
2023/12/17 10:37:58;;;;;;;55.08;23.13;;;9.40;99.90;;;;;;4996934;28;20045;-69
2023/12/17 10:40:25;;;;;;;53.63;24.35;;;9.50;99.90;;;;;;4998202;28;21006;-70
2023/12/17 10:42:53;;;;;;;58.53;23.38;;;9.40;99.90;;;;;;4995917;28;20498;-70
2023/12/17 10:45:20;;;;;;;58.97;23.27;;;9.60;99.90;;;;;;4995794;28;20048;-70
2023/12/17 10:47:56;;;;;;;52.38;24.25;;;9.60;99.90;;;;;;4995449;28;20026;-70
2023/12/17 10:50:23;;;;;;;48.22;22.67;;;9.70;99.90;;;;;;4999861;28;20033;-70
2023/12/17 10:52:50;;;;;;;47.33;21.20;;;9.70;99.90;;;;;;4999224;28;20084;-72
2023/12/17 10:55:16;;;;;;;57.03;22.38;;;9.70;99.90;;;;;;4982225;28;20109;-70
2023/12/17 10:58:04;;;;;;;49.92;21.17;;;9.70;99.90;;;;;;4997685;28;20018;-69
2023/12/17 11:00:32;;;;;;;52.80;20.77;;;9.70;99.90;;;;;;4982871;28;20501;-70
2023/12/17 11:03:05;;;;;;;50.38;20.00;;;9.70;99.90;;;;;;4998491;28;20053;-70
2023/12/17 11:05:31;;;;;;;45.55;21.15;;;9.70;99.90;;;;;;4998508;28;20425;-70
2023/12/17 11:07:57;;;;;;;47.58;20.45;;;9.70;99.90;;;;;;4998195;28;20431;-70
2023/12/17 11:10:23;;;;;;;45.70;20.08;;;9.70;99.90;;;;;;4998434;28;20033;-70
2023/12/17 11:12:49;;;;;;;46.58;21.40;;;9.80;99.90;;;;;;5000052;28;20040;-70
2023/12/17 11:15:20;;;;;;;49.30;22.05;;;9.80;99.90;;;;;;4997902;28;20030;-70
2023/12/17 11:17:46;;;;;;;46.67;20.55;;;9.80;99.90;;;;;;4996948;28;20064;-70
2023/12/17 11:20:11;;;;;;;41.42;19.27;;;9.80;99.90;;;;;;4994893;28;20739;-70
2023/12/17 11:22:38;;;;;;;43.03;19.27;;;9.80;99.90;;;;;;4997796;28;20427;-70
2023/12/17 11:25:08;;;;;;;39.75;18.27;;;9.80;99.90;;;;;;4997373;28;20018;-70
2023/12/17 11:27:35;;;;;;;40.28;20.17;;;9.70;99.90;;;;;;4997109;28;20056;-70
2023/12/17 11:30:01;;;;;;;44.58;20.70;;;9.60;99.90;;;;;;4996305;28;20030;-70
2023/12/17 11:32:27;;;;;;;44.92;19.25;;;9.70;99.90;;;;;;4995668;28;20034;-71
2023/12/17 11:34:55;;;;;;;136.55;23.13;;;9.70;99.90;;;;;;4998282;28;20026;-71
2023/12/17 11:37:22;;;;;;;39.65;18.15;;;9.70;99.90;;;;;;4985761;28;20018;-74
2023/12/17 11:39:50;;;;;;;41.10;19.25;;;9.80;99.90;;;;;;4995998;28;20188;-70
2023/12/17 11:42:17;;;;;;;44.22;19.63;;;9.90;99.90;;;;;;4997040;28;20036;-71
2023/12/17 11:44:45;;;;;;;41.10;18.83;;;9.90;99.90;;;;;;4997089;28;20120;-70
2023/12/17 11:47:14;;;;;;;42.78;19.45;;;9.90;99.90;;;;;;4995058;28;20042;-70
2023/12/17 11:49:41;;;;;;;44.95;18.65;;;10.00;99.90;;;;;;4994181;28;20019;-70
2023/12/17 11:52:12;;;;;;;44.80;18.83;;;10.00;99.90;;;;;;4997419;28;20104;-70
2023/12/17 11:54:38;;;;;;;38.97;17.13;;;10.00;99.90;;;;;;4994135;28;20033;-71
2023/12/17 11:57:03;;;;;;;36.97;17.10;;;9.90;99.90;;;;;;4994667;28;20109;-70
2023/12/17 11:59:35;;;;;;;36.45;16.60;;;9.90;99.90;;;;;;4993329;28;20157;-70
2023/12/17 12:02:02;;;;;;;33.45;16.33;;;10.00;99.90;;;;;;4997584;28;20033;-71
2023/12/17 12:04:40;;;;;;;37.80;14.93;;;10.00;99.90;;;;;;4995280;28;20026;-70
2023/12/17 12:07:07;;;;;;;34.90;13.73;;;10.00;99.90;;;;;;4996984;28;20029;-70
2023/12/17 12:09:33;;;;;;;30.83;13.27;;;10.00;99.90;;;;;;4993951;28;20568;-71
2023/12/17 12:11:58;;;;;;;31.10;14.77;;;10.00;99.90;;;;;;4996143;28;20698;-70
2023/12/17 12:14:25;;;;;;;34.75;15.55;;;10.00;99.90;;;;;;4993381;28;20026;-73
2023/12/17 12:16:52;;;;;;;33.50;13.52;;;9.90;99.90;;;;;;4997563;28;20056;-71
2023/12/17 12:19:18;;;;;;;40.70;15.10;;;10.00;99.90;;;;;;4982719;28;20050;-71
2023/12/17 12:21:49;;;;;;;33.33;13.95;;;10.10;99.90;;;;;;4996148;28;20025;-74
2023/12/17 12:24:19;;;;;;;35.38;14.80;;;10.10;99.90;;;;;;4994658;28;20014;-71
2023/12/17 12:26:45;;;;;;;32.08;13.40;;;10.20;99.90;;;;;;4996988;28;20039;-71